Timeline UpdatesTrip UpdatesNews PostsPvt PostsTravel TipsAdmin PostsConv PostsFollowed PostsChat RequestsBlog PostsPNR Posts

Disclaimer
Search
 
 
Fri Aug 1, 2014 21:24:52 ISTHomeTrainsΣChainsAtlasPNRForumGalleryNewsFAQTripsMembersLoginFeedback
No Recent News for this Train
Other Trains in the News **new
Latest...
.
Sat Feb 22, 2014 (09:04PM)
⇐ Return Journey: Train# 57305

57306/Guntur Kacheguda Passenger

Jul 03 2013 (11:33AM)
Change Departure Station:
Change Arrival Station:
Post a Train Travel TipPost a Train Travel Tip **new
Post a Comment/Question/Picture/VideoPost a Comment/Question/Picture/Video
Pantry/Catering
✕ NO Pantry Car
✕ NO Catering
Loco/Rake Reversals
DHNE/Dhone Junction (3);
RSA - Rake Sharing
57307 (KCG - MED Passenger).
Rake/Coach Composition
ENG-SLR-GEN-GEN-GEN-GEN-GEN-S2-S1-GEN-GEN-GEN-GEN-GEN-GEN-SLR, Entry# 721867, Author: Raghavender Daramoni.
Loco
MLY WDM-3A/WDG-3A.
News    PNR    Forum    Time-Table    Availability    Fare Chart    Map    Arr/Dep History    Trips    Gallery    ΣChains    X/O    Timeline    
Travel Time: 12h 25m    33 halts    Distance: 447 km    Avg Speed: 36 km/hr
Type: Passenger
Zone: SCR/South Central
Departs @ 21:35 (Avg 34m late)
Platform# ???
SMTWTFS
Jaggambotla Krishnapuram/JBK 
Arrives @ 10:00 +1 night (Avg 13m late)
Platform# 1
SMTWTFS
Hyderabad Kacheguda/KCG 

33 halts. 61 intermediate Stations between Jaggambotla Krishnapuram and Hyderabad Kacheguda

Show ALL intermediate Stations  

#CodeStation NameX/OArrivesAvgDepartsAvgHaltPFDay#KmSpeedElevZoneAddress
1GNTGuntur Junction (7)  -17:30+311-176.82737mSCRGuntur, Andhra Pradesh
2NLPDNallapadu Junction (3)  17:41+917:42+111m--1-171.94346mSCRPhone Number : 0863-2119153, Andhra Pradesh
3PRCAPerecherla (1)  17:51+1217:52+131m11-165.56475mSCRPerecherlaPRCA Station Phone Number : 0863-2290580, Andhra Pradesh
4PPMPhirangipuram  18:01+1518:02+161m--1-155.96162mSCRPhirangipuram, Andhra Pradesh
5NDPUNudurupadu  18:09+1818:10+181m--1-148.79349mSCRCoastal Andhra Region, Andhra Pradesh
6STURSatulur  18:14+2218:15+231m--1-142.64359mSCRGuntur, Andhra Pradesh
7NRTNarasaraopet (3)X  18:30+2118:32+222m--1-131.86774mSCRNarsaraopet ph.no 08647-223131, Andhra Pradesh
8MUKMunumaka  18:39+2518:40+261m--1-124.05769mSCR08647-219555, Andhra Pradesh
9SABSantamagulur  18:49+2718:50+281m--1-115.54175mSCRGuntur, Andhra Pradesh
10VLCAVellalacheruvu Halt  18:55-18:56-1m--1-112.02387mSCRVellalacheruvu, Andhra Pradesh
11SYMSavalyapuram  19:17+1619:18+171m--1-104.04587mSCRGuntur Phone Number : 08646-259211, Andhra Pradesh
12VKNVinukonda (1)  19:31+1519:32+181m11-94.37595mSCRVinukonda, Andhra Pradesh
13CEMCheekategalapalem  19:39+2019:40+221m--1-85.54478mSCRVinukonda, Andhra Pradesh
14GKMGundlakamma (1)  19:46+2519:47+261m11-81.14891mSCRVinukonda, Andhra Pradesh
15KCDKurichedu (1)  20:01+2420:02+241m11-69.958121mSCRPrakasam dt, Andhra Pradesh
16POOPotlapadu (1)  20:09+2720:10+271m11-63.137147mSCRAndhra Pradesh, Andhra Pradesh
17DKDDonakonda (3)  20:20+2620:22+272m--1-56.947154mSCRPhone:08408-272037, Andhra Pradesh
18GJJGajjelakonda (1)  20:36+2620:37+261m11-46.057153mSCRPrakasam. Telephone 08499-247233, Andhra Pradesh
19MRKMarkapur Road (2)  20:51+2620:52+281m11-32.639156mSCRmarkapur road ph.no 08596-222028, Andhra Pradesh
20TLUTarlupadu (1)  21:09+2621:10+261m11-21.764164mSCRPhone Number : 08499-246232, Andhra Pradesh
21CBMCumbum (1)  21:24+2621:25+301m11-6.845199mSCRprakasham dist, Andhra Pradesh
22JBK»Jaggambotla Krishnapuram»X  21:34+3121:35+341m--10.050200mSCRPhone;08406-200100, Andhra Pradesh
23SDVSomidevipalle  21:49+3221:50+351m--111.753225mSCRPhone Number : 9441901913, Andhra Pradesh
24GMAGudimetta  21:55-21:56-1m--116.245231mSCRBestavaripeta, Andhra Pradesh
25GIDGiddalur (2)  22:10+3522:12+362m--126.642269mSCRGiddalur ph.no 08405-242003, Andhra Pradesh
26KSTEKrishnamsetty PalleX  22:19-22:20-1m--131.544278mSCRPrakasam, Andhra Pradesh
27DMTDiguvametta  22:29+4022:30+511m--138.235315mSCRRayalaseema Region, Andhra Pradesh
28CMZChelama (1)X  22:59+4023:00+421m1154.934314mSCRKurnool, Andhra Pradesh
29GZLGazulapalli  23:19+3323:20+341m--165.619238mSCRKurnool, Andhra Pradesh
30NDLNandyal (3)  00:05+1200:10+185m1279.989216mSCRPhone Number : 9247019958, Andhra Pradesh
31PNMPanyam (2)  00:20+3800:21+401m--294.856227mSCRKurnool Dist., Andhra Pradesh
32BEYBugganipalli Cement Nagar  00:41+4400:42+451m--2113.657386mSCRKurnool, Andhra Pradesh
33BMHBetamcherla (2)  00:49+4800:50+491m--2120.260425mSCRBetamcherla, Andhra Pradesh
34RGMRangapuram  01:01+5101:02+541m--2131.259440mSCRKurnool, Andhra Pradesh
35MLKMalkapuram  01:14+1:2201:15+1:331m--2142.912459mSCRKurnool, Andhra Pradesh
36DHNEDhone Junction (3)XO02:20+1:3202:50+1:0430m--2156.064425mSCR518222, Andhra Pradesh
37VDIVeldurti (2)  03:09+1:0903:10+1:151m--2176.246341mSCRVeldurthi, Andhra Pradesh
38KRNTKurnool City (3)  03:55+5903:57+1:082m--2210.459293mSCRKurnool Ph:08518-220110, Andhra Pradesh
39SBBJSri Bala Brahmeswara Jogulamba Halt (1)  04:07-04:08-1m12220.256312mSCRMahabubnagar Dist., Telangana
40GWDGadwal Junction (2)X  04:57+1:1304:58+1:181m--2265.762327mSCRMahbubnagar Dist., Telangana
41WPRWanaparti Road (2)  05:19+1:2105:20+1:231m--2287.385330mSCRMahbubnagar Dist., Telangana
42MHBTMahbubnagar Town Halt (1)XO  05:56-05:57-1m12338.23500mSCRMahbubnagar, Telangana
43MBNRMahbubnagar (3)  06:50+4507:05+3515m--2340.775500mSCRMahbubnagar, Telangana
44JCLJadcherla (3)X  07:19+4407:20+451m--2358.350545mSCR509301, Telangana
45GLYGollapally (1)  07:29+3907:30+411m12365.948556mSCR, Telangana
46BABRBalanagar (3)  07:49+3607:50+371m12381.239566mSCR, Telangana
47SHNRShadnagar (3)  08:11+3208:12+321m--2394.775648mSCRMahabubnagar Dist., Telangana
48TMXTimmapur (2)X  08:24+3208:25+321m--2409.782582mSCRMahabubnagar Dist., Telangana
49URUmdanagar (3)  08:37+2908:38+291m--2426.156581mSCRHyderabad, Telangana
50BDVLBudvel (2)  08:45+3108:46+321m--2432.614556mSCRHyderabad, Telangana
51FMFalaknuma (3)  09:14+2109:15+211m--2439.337523mSCRHyderabad, Telangana
52HPGHuppuguda (2)  09:17-09:18-1m--2440.549520mSCRHyderabad, Telangana
53YKAYakutpura (2)  09:21-09:22-1m--2443.046505mSCRHyderabad, Telangana
54DQRDabirpura (2)  09:23-09:24-1m--2443.738500mSCRHyderabad, Telangana
55MXTMalakpet (2)  09:26-09:27-1m12445.03494mSCRHyderabad, Telangana
56KCG•Hyderabad Kacheguda (5)•  10:00+13-12446.6-494mSCRHyderabad - 500027, Telangana
Scroll to Top
Scroll to Bottom